»·PEaware :: WAT202 KLAS-KPDX

WAT202 :: KLAS-KPDX

FLIGHT INFORMATION

Flight Status: Arrived
Operator:
Walker Air Transport
More flights by this operator :: More flights under this callsign
Pilot: Nick L. (7253)
Aircraft: AIRBUS A300B4-600
(A306)
More flights by this aircraft type
Origin: KLAS Harry Reid Intl
United States
Destination: KPDX Portland Intl
United States
More flights between these airports :: More routes between these airports
Route: +SHEAD1 OAL J92 YERIN SOERN TMBRS2
File this flight plan on PilotEdge
Remarks: RMK / SIMBRIEF
Altitude:
(Current/Filed)
34,000ft
Speed:
(Current/Filed)
460kts
Departed: 13-Sep-20 10:55 AM
Arrived: 13-Sep-20 12:42 PM
Distance/Time
Traveled:
662nm/1:46
Distance/Time
To Go:
Arrived

Flight Plot

Page will automatically refresh every two minutes.

Flight plan parsing failed; only flown route is shown


Map Options




Map Legend


Flown Route
Filed Route
Departure Airport
Arrival Airport
Navaid (VOR, NDB)
Fix

Horizontal Profiles

Position Reports

Time Latitude Longitude Heading Altitude Ground
Speed
13-Sep-20 10:24 36.081897 -115.125564 89 2047ft 0kts
13-Sep-20 10:25 36.081897 -115.125564 89 2047ft 0kts
13-Sep-20 10:26 36.081897 -115.125564 89 2046ft 0kts
13-Sep-20 10:27 36.081897 -115.125564 89 2046ft 0kts
13-Sep-20 10:28 36.081897 -115.125564 89 2046ft 0kts
13-Sep-20 10:29 36.081897 -115.125564 89 2046ft 0kts
13-Sep-20 10:30 36.081897 -115.125564 89 2046ft 0kts
13-Sep-20 10:31 36.081897 -115.125564 89 2046ft 0kts
13-Sep-20 10:32 36.081897 -115.125564 89 2046ft 0kts
13-Sep-20 10:33 36.081897 -115.125564 89 2046ft 0kts
13-Sep-20 10:34 36.081897 -115.125564 89 2046ft 0kts
13-Sep-20 10:35 36.081897 -115.125564 89 2046ft 0kts
13-Sep-20 10:36 36.081897 -115.125564 89 2046ft 0kts
13-Sep-20 10:37 36.081897 -115.125564 89 2046ft 0kts
13-Sep-20 10:38 36.081897 -115.125564 89 2046ft 0kts
13-Sep-20 10:39 36.081897 -115.125564 89 2046ft 0kts
13-Sep-20 10:40 36.081897 -115.125564 89 2046ft 0kts
13-Sep-20 10:41 36.081897 -115.125564 89 2046ft 0kts
13-Sep-20 10:42 36.081897 -115.125564 89 2046ft 0kts
13-Sep-20 10:43 36.081887 -115.125515 106 2046ft 1kts
13-Sep-20 10:44 36.080443 -115.126183 200 2047ft 5kts
13-Sep-20 10:45 36.079582 -115.126386 182 2048ft 10kts
13-Sep-20 10:46 36.078194 -115.122814 102 2044ft 0kts
13-Sep-20 10:47 36.078194 -115.122814 102 2044ft 0kts
13-Sep-20 10:48 36.078194 -115.122814 102 2044ft 0kts
13-Sep-20 10:49 36.078194 -115.122814 102 2044ft 0kts
13-Sep-20 10:50 36.078194 -115.122814 102 2044ft 0kts
13-Sep-20 10:51 36.078194 -115.122814 102 2044ft 0kts
13-Sep-20 10:52 36.078193 -115.122811 102 2044ft 0kts
13-Sep-20 10:53 36.076769 -115.121349 179 2043ft 12kts
13-Sep-20 10:54 36.076426 -115.137461 270 2082ft 148kts
13-Sep-20 10:55 36.076392 -115.208357 269 4158ft 240kts
13-Sep-20 10:56 36.031388 -115.271463 202 7148ft 277kts
13-Sep-20 10:57 35.960922 -115.310631 221 10902ft 283kts
13-Sep-20 10:58 35.905853 -115.389376 243 12985ft 345kts
13-Sep-20 10:59 35.887215 -115.516603 271 15428ft 399kts
13-Sep-20 11:00 35.890223 -115.655325 271 18662ft 416kts
13-Sep-20 11:01 35.892843 -115.800887 271 21484ft 432kts
13-Sep-20 11:02 35.910571 -115.948838 292 23014ft 444kts
13-Sep-20 11:03 35.984688 -116.069948 316 23970ft 452kts
13-Sep-20 11:04 36.076469 -116.176504 316 25135ft 457kts
13-Sep-20 11:05 36.169673 -116.284436 317 25940ft 458kts
13-Sep-20 11:06 36.262746 -116.392307 317 26742ft 461kts
13-Sep-20 11:07 36.356852 -116.501599 317 27546ft 466kts
13-Sep-20 11:08 36.451663 -116.612056 316 28349ft 472kts
13-Sep-20 11:09 36.546653 -116.725307 318 29215ft 475kts
13-Sep-20 11:10 36.657002 -116.815601 328 30512ft 474kts
13-Sep-20 11:11 36.768521 -116.901134 328 32323ft 471kts
13-Sep-20 11:12 36.870841 -116.979431 328 33982ft 470kts
13-Sep-20 11:13 36.982926 -117.065242 328 34000ft 474kts
13-Sep-20 11:15 37.095311 -117.151444 328 34000ft 474kts
13-Sep-20 11:16 37.207670 -117.237856 328 34000ft 474kts
13-Sep-20 11:17 37.320415 -117.322596 332 34000ft 474kts
13-Sep-20 11:18 37.437223 -117.398673 332 34000ft 474kts
13-Sep-20 11:19 37.554345 -117.474831 332 34000ft 474kts
13-Sep-20 11:20 37.671097 -117.550861 333 34000ft 474kts
13-Sep-20 11:21 37.788054 -117.627196 333 33999ft 474kts
13-Sep-20 11:22 37.905184 -117.703864 332 34000ft 474kts
13-Sep-20 11:23 38.016656 -117.790103 317 34001ft 474kts
13-Sep-20 11:24 38.113086 -117.903633 316 34000ft 474kts
13-Sep-20 11:25 38.209292 -118.018590 316 34000ft 474kts
13-Sep-20 11:26 38.304878 -118.133307 316 34000ft 474kts
13-Sep-20 11:27 38.400929 -118.248826 316 34000ft 474kts
13-Sep-20 11:28 38.496505 -118.364150 316 34000ft 474kts
13-Sep-20 11:29 38.591802 -118.480734 316 34000ft 474kts
13-Sep-20 11:30 38.686481 -118.596999 316 34000ft 474kts
13-Sep-20 11:31 38.781624 -118.714001 315 34000ft 474kts
13-Sep-20 11:32 38.876564 -118.831038 316 34000ft 474kts
13-Sep-20 11:32 38.956004 -118.928410 317 34000ft 474kts
13-Sep-20 11:34 39.086797 -119.030692 332 34000ft 474kts
13-Sep-20 11:35 39.203323 -119.109876 332 34000ft 474kts
13-Sep-20 11:35 39.300480 -119.175748 332 34000ft 474kts
13-Sep-20 11:36 39.416835 -119.254686 332 34000ft 474kts
13-Sep-20 11:38 39.552878 -119.347187 332 34000ft 474kts
13-Sep-20 11:38 39.650061 -119.413459 332 34000ft 474kts
13-Sep-20 11:39 39.766523 -119.493131 332 34000ft 474kts
13-Sep-20 11:40 39.882992 -119.573111 332 34000ft 474kts
13-Sep-20 11:41 39.999432 -119.653390 331 34000ft 474kts
13-Sep-20 11:42 40.115910 -119.734022 331 34000ft 474kts
13-Sep-20 11:43 40.232151 -119.814820 331 34000ft 474kts
13-Sep-20 11:44 40.348062 -119.895717 331 34000ft 474kts
13-Sep-20 11:45 40.464330 -119.977194 331 34000ft 474kts
13-Sep-20 11:46 40.580631 -120.059026 331 34000ft 474kts
13-Sep-20 11:47 40.697853 -120.141845 331 34000ft 474kts
13-Sep-20 11:48 40.815316 -120.225175 331 34000ft 474kts
13-Sep-20 11:49 40.933244 -120.309181 331 34000ft 474kts
13-Sep-20 11:50 41.051198 -120.393555 331 34000ft 474kts
13-Sep-20 11:51 41.167587 -120.477154 331 34000ft 474kts
13-Sep-20 11:52 41.283455 -120.560726 331 34000ft 474kts
13-Sep-20 11:53 41.399056 -120.644443 331 34000ft 474kts
13-Sep-20 11:54 41.514729 -120.728560 331 34000ft 474kts
13-Sep-20 11:55 41.630123 -120.812822 331 34000ft 474kts
13-Sep-20 11:56 41.745790 -120.897636 331 34000ft 474kts
13-Sep-20 11:57 41.861239 -120.982643 331 34000ft 474kts
13-Sep-20 11:58 41.976605 -121.067945 331 34000ft 474kts
13-Sep-20 11:59 42.092110 -121.153710 331 34000ft 474kts
13-Sep-20 12:00 42.207551 -121.239789 331 34000ft 474kts
13-Sep-20 12:01 42.322320 -121.325730 331 34000ft 474kts
13-Sep-20 12:02 42.437769 -121.412547 331 34000ft 474kts
13-Sep-20 12:03 42.553122 -121.499663 331 34000ft 474kts
13-Sep-20 12:04 42.668063 -121.586842 331 34000ft 474kts
13-Sep-20 12:05 42.780754 -121.672754 330 33622ft 443kts
13-Sep-20 12:06 42.891771 -121.757704 330 33701ft 463kts
13-Sep-20 12:07 43.004934 -121.844946 329 33699ft 463kts
13-Sep-20 12:08 43.117387 -121.935369 330 33699ft 463kts
13-Sep-20 12:09 43.229277 -122.023195 330 33699ft 463kts
13-Sep-20 12:10 43.343784 -122.112787 330 33699ft 463kts
13-Sep-20 12:11 43.455393 -122.200196 330 33699ft 463kts
13-Sep-20 12:12 43.566983 -122.288092 330 33699ft 463kts
13-Sep-20 12:13 43.679230 -122.376757 330 33690ft 463kts
13-Sep-20 12:14 43.789007 -122.463570 330 31819ft 462kts
13-Sep-20 12:15 43.901786 -122.552950 330 29023ft 469kts
13-Sep-20 12:16 44.015877 -122.643664 330 26598ft 474kts
13-Sep-20 12:17 44.125763 -122.731465 329 24199ft 433kts
13-Sep-20 12:18 44.246843 -122.745311 4 22906ft 450kts
13-Sep-20 12:19 44.370530 -122.732474 3 21575ft 440kts
13-Sep-20 12:20 44.489150 -122.720488 3 19683ft 411kts
13-Sep-20 12:21 44.597887 -122.709563 3 19066ft 367kts
13-Sep-20 12:22 44.699530 -122.699246 3 17554ft 356kts
13-Sep-20 12:23 44.797364 -122.689325 3 15949ft 350kts
13-Sep-20 12:24 44.892504 -122.679696 3 14577ft 333kts
13-Sep-20 12:25 44.974316 -122.671410 3 13249ft 315kts
13-Sep-20 12:26 45.059473 -122.662497 1 11847ft 319kts
13-Sep-20 12:27 45.147814 -122.653478 0 10554ft 314kts
13-Sep-20 12:28 45.232961 -122.644757 359 9470ft 300kts
13-Sep-20 12:29 45.308849 -122.675520 334 8375ft 277kts
13-Sep-20 12:30 45.379420 -122.714116 335 7374ft 266kts
13-Sep-20 12:31 45.447276 -122.751346 335 6345ft 255kts
13-Sep-20 12:32 45.511996 -122.786946 336 5343ft 245kts
13-Sep-20 12:33 45.571480 -122.820024 330 5015ft 217kts
13-Sep-20 12:34 45.606229 -122.887573 302 3865ft 212kts
13-Sep-20 12:35 45.652649 -122.914361 4 3495ft 193kts
13-Sep-20 12:36 45.684166 -122.866253 90 3496ft 205kts
13-Sep-20 12:37 45.662505 -122.794884 117 2764ft 192kts
13-Sep-20 12:38 45.639849 -122.736487 117 1846ft 151kts
13-Sep-20 12:39 45.619550 -122.684146 118 1040ft 150kts
13-Sep-20 12:40 45.599498 -122.632580 118 240ft 146kts
13-Sep-20 12:41 45.586732 -122.600236 168 26ft 10kts
13-Sep-20 12:42 45.586393 -122.601667 266 26ft 0kts
13-Sep-20 12:43 45.586393 -122.601667 266 26ft 0kts
13-Sep-20 12:44 45.585745 -122.604172 178 26ft 0kts

Navigation Log

Ident Type
Flight plan parsing failed, navigation log unavailable